createdAt,value
2019-05-28T00:00:01.939Z,20.62
2019-05-28T00:04:57.507Z,21.25
2019-05-28T00:10:06.860Z,18.50
2019-05-28T00:15:16.172Z,21.62
2019-05-28T00:20:23.514Z,22.00
2019-05-28T00:25:29.404Z,15.00
2019-05-28T00:30:35.343Z,20.00
2019-05-28T00:35:39.991Z,22.00
2019-05-28T00:40:45.721Z,22.00
2019-05-28T00:45:54.620Z,20.62
2019-05-28T00:50:59.497Z,20.00
2019-05-28T00:56:08.743Z,22.37
2019-05-28T01:01:13.288Z,24.00
2019-05-28T01:06:19.784Z,23.12
2019-05-28T01:11:28.186Z,22.14
2019-05-28T01:16:37.241Z,20.00
2019-05-28T01:21:44.756Z,23.00
2019-05-28T01:26:53.182Z,20.71
2019-05-28T01:31:58.012Z,22.00
2019-05-28T01:37:02.176Z,22.00
2019-05-28T01:42:06.376Z,23.00
2019-05-28T01:47:10.626Z,23.00
2019-05-28T01:52:17.304Z,22.75
2019-05-28T01:57:25.675Z,22.00
2019-05-28T02:02:33.508Z,20.75
2019-05-28T02:07:41.952Z,23.38
2019-05-28T02:12:47.679Z,23.00
2019-05-28T02:17:55.778Z,22.75
2019-05-28T02:23:04.105Z,23.78
2019-05-28T02:28:11.263Z,20.00
2019-05-28T02:33:18.545Z,23.62
2019-05-28T02:38:28.988Z,20.00
2019-05-28T02:43:36.222Z,22.00
2019-05-28T02:48:45.039Z,19.12
2019-05-28T02:53:54.072Z,16.87
2019-05-28T02:58:59.677Z,21.50
2019-05-28T03:04:03.623Z,22.00
2019-05-28T03:09:10.551Z,17.00
2019-05-28T03:14:19.637Z,19.00
2019-05-28T03:19:29.858Z,18.37
2019-05-28T03:24:34.914Z,14.75
2019-05-28T03:29:39.706Z,17.50
2019-05-28T03:34:43.519Z,20.00
2019-05-28T03:39:53.297Z,20.00
2019-05-28T03:45:02.403Z,22.25
2019-05-28T03:50:06.612Z,22.00
2019-05-28T03:55:14.983Z,22.62
2019-05-28T04:00:22.059Z,22.00
2019-05-28T04:05:29.569Z,20.37
2019-05-28T04:10:41.300Z,20.50
2019-05-28T04:15:50.295Z,22.00
2019-05-28T04:20:59.992Z,23.75
2019-05-28T04:26:08.974Z,22.62
2019-05-28T04:31:16.475Z,20.00
2019-05-28T04:36:21.319Z,22.75
2019-05-28T04:41:25.438Z,19.75
2019-05-28T04:46:29.561Z,27.75
2019-05-28T04:51:35.198Z,20.00
2019-05-28T04:56:40.186Z,20.00
2019-05-28T05:01:45.260Z,16.00
2019-05-28T05:06:51.266Z,20.00
2019-05-28T05:11:58.188Z,16.86
2019-05-28T05:17:01.034Z,17.33
2019-05-28T05:22:06.515Z,11.71
2019-05-28T05:27:11.891Z,17.00
2019-05-28T05:32:17.238Z,16.87
2019-05-28T05:37:21.770Z,14.00
2019-05-28T05:42:27.347Z,24.50
2019-05-28T05:47:34.317Z,18.87
2019-05-28T05:52:37.798Z,14.25
2019-05-28T05:57:40.698Z,13.00
2019-05-28T06:02:46.785Z,11.00
2019-05-28T06:07:51.779Z,11.43
2019-05-28T06:12:55.203Z,11.33
2019-05-28T06:18:01.273Z,11.00
2019-05-28T06:23:08.113Z,10.14
2019-05-28T06:28:15.028Z,19.86
2019-05-28T06:33:20.194Z,9.14
2019-05-28T06:38:23.803Z,17.00
2019-05-28T06:43:29.952Z,7.00
2019-05-28T06:48:33.429Z,14.00
2019-05-28T06:53:36.519Z,14.67
2019-05-28T06:58:40.594Z,15.25
2019-05-28T07:03:44.755Z,12.40
2019-05-28T07:08:50.239Z,6.50
2019-05-28T07:13:57.453Z,13.50
2019-05-28T07:19:02.256Z,13.29
2019-05-28T07:24:07.535Z,16.00
2019-05-28T07:29:11.278Z,20.50
2019-05-28T07:34:29.489Z,10.00
2019-05-28T07:39:22.116Z,13.00
2019-05-28T07:44:27.492Z,11.43
2019-05-28T07:49:32.218Z,10.00
2019-05-28T07:54:39.506Z,17.12
2019-05-28T07:59:43.357Z,9.17
2019-05-28T08:04:48.967Z,14.00
2019-05-28T08:09:55.929Z,12.63
2019-05-28T08:15:02.097Z,10.00
2019-05-28T08:20:07.260Z,10.29
2019-05-28T08:25:27.249Z,6.14
2019-05-28T08:30:20.819Z,13.14
2019-05-28T08:35:29.449Z,12.50
2019-05-28T08:40:35.989Z,14.43
2019-05-28T08:45:42.643Z,10.50
2019-05-28T08:50:50.197Z,12.29
2019-05-28T08:55:58.757Z,9.14
2019-05-28T09:01:04.340Z,12.00
2019-05-28T09:06:10.307Z,10.33
2019-05-28T09:11:14.312Z,15.25
2019-05-28T09:16:20.351Z,12.29
2019-05-28T09:21:28.251Z,14.30
2019-05-28T09:26:31.902Z,14.00
2019-05-28T09:31:37.231Z,15.57
2019-05-28T09:36:41.703Z,13.00
2019-05-28T09:41:48.583Z,16.00
2019-05-28T09:46:53.854Z,12.00
2019-05-28T09:51:57.330Z,12.75
2019-05-28T09:57:03.748Z,11.29
2019-05-28T10:02:09.011Z,12.57
2019-05-28T10:07:15.069Z,9.00
2019-05-28T10:12:18.695Z,12.00
2019-05-28T10:17:22.244Z,15.00
2019-05-28T10:22:28.414Z,17.62
2019-05-28T10:27:34.630Z,11.57
2019-05-28T10:32:44.034Z,15.00
2019-05-28T10:37:49.251Z,17.71
2019-05-28T10:42:53.787Z,15.57
2019-05-28T10:47:58.554Z,20.29
2019-05-28T10:53:04.041Z,13.57
2019-05-28T10:58:13.428Z,19.25
2019-05-28T11:03:18.825Z,12.14
2019-05-28T11:08:26.696Z,11.29
2019-05-28T11:13:32.237Z,9.00
2019-05-28T11:18:36.931Z,10.57
2019-05-28T11:23:41.667Z,14.29
2019-05-28T11:28:49.662Z,12.14
2019-05-28T11:33:56.931Z,8.17
2019-05-28T11:39:00.651Z,10.00
2019-05-28T11:44:04.489Z,8.00
2019-05-28T11:49:08.338Z,8.17
2019-05-28T11:54:12.709Z,8.00
2019-05-28T11:59:20.541Z,9.71
2019-05-28T12:04:24.385Z,5.00
2019-05-28T12:09:29.892Z,10.29
2019-05-28T12:14:35.196Z,10.14
2019-05-28T12:19:42.422Z,8.00
2019-05-28T12:24:50.197Z,9.17
2019-05-28T12:29:54.712Z,8.67
2019-05-28T12:34:59.287Z,6.17
2019-05-28T12:40:04.711Z,11.43
2019-05-28T12:45:11.499Z,21.75
2019-05-28T12:50:20.765Z,12.71
2019-05-28T12:55:25.311Z,11.00
2019-05-28T13:00:30.960Z,8.00
2019-05-28T13:05:35.814Z,12.43
2019-05-28T13:10:45.243Z,15.09
2019-05-28T13:15:48.951Z,18.50
2019-05-28T13:20:53.590Z,7.50
2019-05-28T13:25:58.285Z,7.00
2019-05-28T13:31:02.123Z,13.80
2019-05-28T13:36:06.754Z,8.17
2019-05-28T13:41:10.461Z,5.00
2019-05-28T13:46:16.767Z,22.75
2019-05-28T13:51:20.883Z,11.20
2019-05-28T13:56:25.064Z,10.00
2019-05-28T14:01:29.185Z,10.40
2019-05-28T14:06:36.704Z,8.00
2019-05-28T14:11:42.382Z,5.00
2019-05-28T14:16:46.237Z,4.00
2019-05-28T14:21:50.139Z,7.00
2019-05-28T14:26:54.086Z,8.60
2019-05-28T14:31:58.056Z,4.40
2019-05-28T14:37:05.506Z,3.78
2019-05-28T14:42:11.947Z,4.00
2019-05-28T14:47:15.887Z,5.00
2019-05-28T14:52:23.944Z,5.14
2019-05-28T14:57:28.863Z,23.43
2019-05-28T15:02:33.783Z,3.50
2019-05-28T15:07:37.598Z,3.50
2019-05-28T15:12:44.073Z,2.00
2019-05-28T15:17:47.712Z,7.33
2019-05-28T15:22:55.080Z,9.33
2019-05-28T15:27:59.019Z,7.50
2019-05-28T15:33:03.872Z,12.86
2019-05-28T15:38:07.916Z,5.00
2019-05-28T15:43:12.105Z,9.60
2019-05-28T15:48:17.021Z,6.50
2019-05-28T15:53:20.963Z,7.00
2019-05-28T15:58:36.830Z,7.33
2019-05-28T16:03:44.185Z,7.17
2019-05-28T16:08:48.927Z,8.14
2019-05-28T16:13:52.837Z,8.00
2019-05-28T16:18:56.668Z,5.00
2019-05-28T16:24:00.715Z,5.00
2019-05-28T16:29:04.102Z,5.00
2019-05-28T16:34:10.686Z,5.00
2019-05-28T16:39:14.599Z,4.00
2019-05-28T16:44:17.730Z,5.00
2019-05-28T16:49:22.554Z,7.33
2019-05-28T16:54:26.634Z,3.50
2019-05-28T16:59:29.880Z,4.67
2019-05-28T17:04:33.923Z,8.00
2019-05-28T17:09:39.470Z,10.14
2019-05-28T17:14:43.250Z,9.00
2019-05-28T17:19:47.066Z,6.83
2019-05-28T17:24:54.293Z,7.83
2019-05-28T17:30:17.297Z,12.80
2019-05-28T17:35:10.223Z,6.60
2019-05-28T17:40:14.336Z,4.00
2019-05-28T17:45:19.660Z,7.00
2019-05-28T17:50:23.857Z,6.00
2019-05-28T17:55:27.888Z,8.50
2019-05-28T18:00:31.231Z,7.00
2019-05-28T18:05:35.411Z,7.00
2019-05-28T18:10:43.220Z,9.00
2019-05-28T18:15:50.618Z,8.17
2019-05-28T18:20:54.020Z,5.20
2019-05-28T18:26:00.709Z,6.50
2019-05-28T18:31:04.817Z,5.67
2019-05-28T18:36:08.222Z,5.00
2019-05-28T18:41:21.420Z,4.10
2019-05-28T18:46:26.868Z,2.70
2019-05-28T18:51:30.589Z,5.00
2019-05-28T18:56:34.262Z,7.00
2019-05-28T19:01:39.728Z,9.00
2019-05-28T19:06:44.315Z,6.00
2019-05-28T19:11:48.946Z,8.43
2019-05-28T19:16:52.831Z,5.67
2019-05-28T19:21:57.482Z,13.00
2019-05-28T19:27:01.942Z,7.50
2019-05-28T19:32:09.965Z,10.00
2019-05-28T19:37:15.805Z,11.14
2019-05-28T19:42:21.403Z,10.00
2019-05-28T19:47:29.614Z,12.86
2019-05-28T19:52:33.309Z,14.00
2019-05-28T19:57:38.025Z,15.29
2019-05-28T20:02:43.615Z,10.00
2019-05-28T20:07:51.400Z,9.57
2019-05-28T20:12:58.736Z,12.43
2019-05-28T20:18:02.528Z,6.00
2019-05-28T20:23:08.030Z,10.57
2019-05-28T20:28:13.022Z,10.50
2019-05-28T20:33:21.822Z,9.45
2019-05-28T20:38:27.434Z,11.14
2019-05-28T20:43:34.783Z,8.67
2019-05-28T20:48:42.725Z,11.00
2019-05-28T20:53:48.416Z,10.57
2019-05-28T20:58:55.942Z,14.71
2019-05-28T21:03:59.947Z,14.00
2019-05-28T21:09:05.743Z,16.57
2019-05-28T21:14:11.347Z,15.57
2019-05-28T21:23:50.301Z,18.83
2019-05-28T21:28:56.558Z,11.00
2019-05-28T21:34:01.515Z,16.50
2019-05-28T21:39:07.118Z,11.57
2019-05-28T21:44:14.111Z,17.25
2019-05-28T21:49:23.627Z,22.00
2019-05-28T21:54:28.851Z,18.37
2019-05-28T21:59:31.775Z,17.33
2019-05-28T22:04:37.261Z,16.00
2019-05-28T22:09:43.279Z,19.57
2019-05-28T22:14:46.905Z,19.00
2019-05-28T22:19:52.314Z,18.86
2019-05-28T22:24:58.573Z,17.14
2019-05-28T22:30:07.528Z,20.00
2019-05-28T22:35:14.793Z,17.33
2019-05-28T22:40:19.798Z,19.00
2019-05-28T22:45:23.834Z,20.00
2019-05-28T22:50:27.739Z,18.00
2019-05-28T22:55:33.394Z,18.00
2019-05-28T23:00:40.667Z,17.62
2019-05-28T23:05:45.214Z,19.00
2019-05-28T23:10:51.524Z,18.00
2019-05-28T23:15:55.547Z,16.00
2019-05-28T23:21:01.135Z,13.14
2019-05-28T23:26:09.362Z,17.62
2019-05-28T23:31:17.458Z,16.25
2019-05-28T23:36:22.914Z,16.86
2019-05-28T23:41:29.369Z,26.87
2019-05-28T23:46:35.094Z,16.00
2019-05-28T23:51:40.839Z,19.00
2019-05-28T23:56:46.387Z,19.50
